createdAt,value
2023-01-25T00:00:06.149Z,10.00
2023-01-25T00:03:07.705Z,10.13
2023-01-25T00:06:09.387Z,11.63
2023-01-25T00:09:11.752Z,11.10
2023-01-25T00:12:13.468Z,10.10
2023-01-25T00:15:15.564Z,10.87
2023-01-25T00:18:17.209Z,11.17
2023-01-25T00:21:20.070Z,10.50
2023-01-25T00:24:23.239Z,9.33
2023-01-25T00:27:24.960Z,9.30
2023-01-25T00:30:26.613Z,9.27
2023-01-25T00:33:34.303Z,10.00
2023-01-25T00:36:38.983Z,10.50
2023-01-25T00:39:40.644Z,8.90
2023-01-25T00:42:42.414Z,10.27
2023-01-25T00:45:45.936Z,9.17
2023-01-25T00:48:47.931Z,8.53
2023-01-25T00:51:49.940Z,10.03
2023-01-25T00:54:51.740Z,8.83
2023-01-25T00:57:53.343Z,9.50
2023-01-25T01:00:55.780Z,9.20
2023-01-25T01:03:58.144Z,8.97
2023-01-25T01:06:59.852Z,8.20
2023-01-25T01:10:01.787Z,9.57
2023-01-25T01:13:03.589Z,11.80
2023-01-25T01:16:08.484Z,9.57
2023-01-25T01:19:10.821Z,9.23
2023-01-25T01:22:12.431Z,8.70
2023-01-25T01:25:14.087Z,9.50
2023-01-25T01:28:15.683Z,9.00
2023-01-25T01:31:21.647Z,10.63
2023-01-25T01:34:32.212Z,9.93
2023-01-25T01:37:33.992Z,9.90
2023-01-25T01:40:35.605Z,9.93
2023-01-25T01:43:37.347Z,9.90
2023-01-25T01:46:41.530Z,9.93
2023-01-25T01:50:08.207Z,9.77
2023-01-25T01:53:10.894Z,9.47
2023-01-25T01:56:16.697Z,9.67
2023-01-25T01:59:19.589Z,9.20
2023-01-25T02:02:22.720Z,8.50
2023-01-25T02:05:31.424Z,9.23
2023-01-25T02:08:34.166Z,9.07
2023-01-25T02:11:37.309Z,8.97
2023-01-25T02:14:41.421Z,9.37
2023-01-25T02:17:43.307Z,9.33
2023-01-25T02:20:53.241Z,9.23
2023-01-25T02:24:01.421Z,9.80
2023-01-25T02:27:04.485Z,10.37
2023-01-25T02:30:06.824Z,10.23
2023-01-25T02:33:08.579Z,10.37
2023-01-25T02:36:10.567Z,10.03
2023-01-25T02:39:20.282Z,9.23
2023-01-25T02:42:22.620Z,11.07
2023-01-25T02:45:26.863Z,9.83
2023-01-25T02:48:28.468Z,10.87
2023-01-25T02:51:31.477Z,9.67
2023-01-25T02:54:33.182Z,10.33
2023-01-25T02:57:38.764Z,9.90
2023-01-25T03:00:40.663Z,8.77
2023-01-25T03:03:42.544Z,8.73
2023-01-25T03:06:44.435Z,8.83
2023-01-25T03:09:46.782Z,9.10
2023-01-25T03:12:48.519Z,7.60
2023-01-25T03:15:50.310Z,8.50
2023-01-25T03:18:55.976Z,8.80
2023-01-25T03:21:59.154Z,7.30
2023-01-25T03:25:02.336Z,7.73
2023-01-25T03:28:04.165Z,7.03
2023-01-25T03:31:09.273Z,7.43
2023-01-25T03:34:11.298Z,8.10
2023-01-25T03:37:15.925Z,7.10
2023-01-25T03:40:18.559Z,7.13
2023-01-25T03:43:25.069Z,7.23
2023-01-25T03:46:27.695Z,6.30
2023-01-25T03:49:29.586Z,6.37
2023-01-25T03:52:38.381Z,6.93
2023-01-25T03:55:42.350Z,7.43
2023-01-25T03:58:44.989Z,7.20
2023-01-25T04:01:47.364Z,7.00
2023-01-25T04:04:49.262Z,7.00
2023-01-25T04:07:53.675Z,7.40
2023-01-25T04:11:05.187Z,7.30
2023-01-25T04:14:06.822Z,7.37
2023-01-25T04:17:18.146Z,7.07
2023-01-25T04:20:29.013Z,6.70
2023-01-25T04:23:31.542Z,6.80
2023-01-25T04:26:33.444Z,7.97
2023-01-25T04:29:41.762Z,7.73
2023-01-25T04:32:49.226Z,7.60
2023-01-25T04:35:59.363Z,7.20
2023-01-25T04:39:00.991Z,7.87
2023-01-25T04:42:03.505Z,6.77
2023-01-25T04:45:05.657Z,7.30
2023-01-25T04:48:10.845Z,8.07
2023-01-25T04:51:18.381Z,7.07
2023-01-25T04:54:20.466Z,7.57
2023-01-25T04:57:22.188Z,7.10
2023-01-25T05:00:28.002Z,7.80
2023-01-25T05:03:30.926Z,7.77
2023-01-25T05:06:33.423Z,8.87
2023-01-25T05:09:35.289Z,8.07
2023-01-25T05:12:37.606Z,8.20
2023-01-25T05:15:41.242Z,6.53
2023-01-25T05:18:48.979Z,7.77
2023-01-25T05:22:07.531Z,7.73
2023-01-25T05:25:35.752Z,8.93
2023-01-25T05:28:38.402Z,9.63
2023-01-25T05:32:04.599Z,11.57
2023-01-25T05:35:07.577Z,8.00
2023-01-25T05:38:09.616Z,10.43
2023-01-25T05:41:11.534Z,10.30
2023-01-25T05:44:13.471Z,8.73
2023-01-25T05:47:20.141Z,8.23
2023-01-25T05:50:22.411Z,8.10
2023-01-25T05:53:34.736Z,6.97
2023-01-25T05:56:36.849Z,7.00
2023-01-25T05:59:38.866Z,7.20
2023-01-25T06:02:43.816Z,8.13
2023-01-25T06:05:54.916Z,6.90
2023-01-25T06:08:57.811Z,6.50
2023-01-25T06:12:00.380Z,8.77
2023-01-25T06:15:02.206Z,7.50
2023-01-25T06:18:04.040Z,6.13
2023-01-25T06:21:20.798Z,6.10
2023-01-25T06:24:22.541Z,7.53
2023-01-25T06:27:24.262Z,6.43
2023-01-25T06:30:26.194Z,5.40
2023-01-25T06:33:27.876Z,6.10
2023-01-25T06:36:29.891Z,6.43
2023-01-25T06:39:31.537Z,6.13
2023-01-25T06:42:33.591Z,5.57
2023-01-25T06:45:35.255Z,6.03
2023-01-25T06:48:37.005Z,6.00
2023-01-25T06:51:38.655Z,5.80
2023-01-25T06:54:40.380Z,10.30
2023-01-25T06:57:42.083Z,9.90
2023-01-25T07:00:43.811Z,5.70
2023-01-25T07:03:48.357Z,8.70
2023-01-25T07:06:50.029Z,9.93
2023-01-25T07:09:51.661Z,8.67
2023-01-25T07:12:53.349Z,8.83
2023-01-25T07:16:08.200Z,9.20
2023-01-25T07:19:11.068Z,9.50
2023-01-25T07:22:12.737Z,9.33
2023-01-25T07:25:14.435Z,9.70
2023-01-25T07:28:17.353Z,12.73
2023-01-25T07:31:19.520Z,10.63
2023-01-25T07:34:21.257Z,11.97
2023-01-25T07:37:22.933Z,9.20
2023-01-25T07:40:25.379Z,7.30
2023-01-25T07:43:27.369Z,9.03
2023-01-25T07:46:29.056Z,6.27
2023-01-25T07:49:30.624Z,8.43
2023-01-25T07:52:33.329Z,7.07
2023-01-25T07:55:35.033Z,6.80
2023-01-25T07:58:36.793Z,11.57
2023-01-25T08:01:39.079Z,10.43
2023-01-25T08:04:42.555Z,12.70
2023-01-25T08:07:44.338Z,11.03
2023-01-25T08:10:46.031Z,9.20
2023-01-25T08:13:51.041Z,9.43
2023-01-25T08:16:53.189Z,9.33
2023-01-25T08:19:55.467Z,9.30
2023-01-25T08:22:57.095Z,14.10
2023-01-25T08:26:06.911Z,14.00
2023-01-25T08:29:10.014Z,11.43
2023-01-25T08:32:11.691Z,13.33
2023-01-25T08:35:13.477Z,13.80
2023-01-25T08:38:17.299Z,13.63
2023-01-25T08:41:21.892Z,12.13
2023-01-25T08:44:25.904Z,15.33
2023-01-25T08:47:27.610Z,10.07
2023-01-25T08:50:29.281Z,12.40
2023-01-25T08:53:31.698Z,9.93
2023-01-25T08:56:33.482Z,8.87
2023-01-25T08:59:35.069Z,12.13
2023-01-25T09:02:36.799Z,13.60
2023-01-25T09:05:39.580Z,12.97
2023-01-25T09:08:41.491Z,9.07
2023-01-25T09:11:43.140Z,8.00
2023-01-25T09:14:44.771Z,11.43
2023-01-25T09:17:46.384Z,24.20
2023-01-25T09:20:47.997Z,7.80
2023-01-25T09:23:57.663Z,6.77
2023-01-25T09:27:06.052Z,4.97
2023-01-25T09:30:18.179Z,6.43
2023-01-25T09:33:25.321Z,6.60
2023-01-25T09:36:27.125Z,4.70
2023-01-25T09:39:28.827Z,4.80
2023-01-25T09:42:45.755Z,4.10
2023-01-25T09:45:47.666Z,5.23
2023-01-25T09:49:06.787Z,3.43
2023-01-25T09:52:09.062Z,3.23
2023-01-25T09:55:15.298Z,4.90
2023-01-25T09:58:25.827Z,8.00
2023-01-25T10:01:38.195Z,8.83
2023-01-25T10:04:42.552Z,5.93
2023-01-25T10:07:55.040Z,3.80
2023-01-25T10:11:16.525Z,5.47
2023-01-25T10:14:18.861Z,5.97
2023-01-25T10:17:27.165Z,5.80
2023-01-25T10:20:35.950Z,5.57
2023-01-25T10:23:47.466Z,7.00
2023-01-25T10:26:52.597Z,3.40
2023-01-25T10:29:56.950Z,8.13
2023-01-25T10:33:00.489Z,3.23
2023-01-25T10:36:03.252Z,6.50
2023-01-25T10:39:07.687Z,3.60
2023-01-25T10:42:11.882Z,5.47
2023-01-25T10:45:16.870Z,3.13
2023-01-25T10:48:23.093Z,4.80
2023-01-25T10:51:32.134Z,4.20
2023-01-25T10:54:33.775Z,5.67
2023-01-25T10:57:35.776Z,6.30
2023-01-25T11:00:38.604Z,3.23
2023-01-25T11:03:41.368Z,3.83
2023-01-25T11:06:47.113Z,3.90
2023-01-25T11:09:48.691Z,4.17
2023-01-25T11:13:10.166Z,3.57
2023-01-25T11:16:11.915Z,2.77
2023-01-25T11:19:26.147Z,5.37
2023-01-25T11:22:29.287Z,3.30
2023-01-25T11:25:32.064Z,4.53
2023-01-25T11:28:33.734Z,3.67
2023-01-25T11:31:35.957Z,4.63
2023-01-25T11:34:37.634Z,3.13
2023-01-25T11:37:57.958Z,4.03
2023-01-25T11:41:08.719Z,5.33
2023-01-25T11:44:22.642Z,4.03
2023-01-25T11:47:33.123Z,4.90
2023-01-25T11:50:53.036Z,5.97
2023-01-25T11:54:00.732Z,4.27
2023-01-25T11:57:22.563Z,3.10
2023-01-25T12:00:30.030Z,9.13
2023-01-25T12:03:49.201Z,6.60
2023-01-25T12:06:59.245Z,7.57
2023-01-25T12:10:04.828Z,8.07
2023-01-25T12:13:31.598Z,9.07
2023-01-25T12:16:51.828Z,5.07
2023-01-25T12:20:13.794Z,3.67
2023-01-25T12:23:24.716Z,3.50
2023-01-25T12:26:30.387Z,4.20
2023-01-25T12:29:41.056Z,7.20
2023-01-25T12:32:59.510Z,3.97
2023-01-25T12:36:04.133Z,3.60
2023-01-25T12:39:24.746Z,5.30
2023-01-25T12:42:46.651Z,4.90
2023-01-25T12:45:50.050Z,7.83
2023-01-25T12:48:53.741Z,6.17
2023-01-25T12:51:56.790Z,4.87
2023-01-25T12:55:02.440Z,5.93
2023-01-25T12:58:12.616Z,5.20
2023-01-25T13:01:23.253Z,3.90
2023-01-25T13:04:24.887Z,4.30
2023-01-25T13:07:33.153Z,5.30
2023-01-25T13:10:39.458Z,9.17
2023-01-25T13:13:41.178Z,9.30
2023-01-25T13:16:45.329Z,6.77
2023-01-25T13:19:47.645Z,8.87
2023-01-25T13:22:49.232Z,5.20
2023-01-25T13:25:51.838Z,4.53
2023-01-25T13:29:00.588Z,5.47
2023-01-25T13:32:03.231Z,3.83
2023-01-25T13:35:05.888Z,5.10
2023-01-25T13:38:26.244Z,4.20
2023-01-25T13:41:27.990Z,4.70
2023-01-25T13:44:31.032Z,5.00
2023-01-25T13:47:35.946Z,5.30
2023-01-25T13:50:40.207Z,5.00
2023-01-25T13:53:43.402Z,7.30
2023-01-25T13:56:45.772Z,7.83
2023-01-25T13:59:49.516Z,5.80
2023-01-25T14:02:54.562Z,5.90
2023-01-25T14:05:57.542Z,5.83
2023-01-25T14:09:01.047Z,4.97
2023-01-25T14:12:03.489Z,6.87
2023-01-25T14:15:20.362Z,9.17
2023-01-25T14:18:26.632Z,9.10
2023-01-25T14:21:29.169Z,10.43
2023-01-25T14:24:30.995Z,28.03
2023-01-25T14:27:33.814Z,17.23
2023-01-25T14:30:36.391Z,9.43
2023-01-25T14:33:44.595Z,11.53
2023-01-25T14:36:46.960Z,11.70
2023-01-25T14:39:49.411Z,15.07
2023-01-25T14:42:52.816Z,23.30
2023-01-25T14:45:54.542Z,12.23
2023-01-25T14:49:14.625Z,11.33
2023-01-25T14:52:20.577Z,9.40
2023-01-25T14:55:22.244Z,28.47
2023-01-25T14:58:24.900Z,12.73
2023-01-25T15:01:46.768Z,10.90
2023-01-25T15:04:54.590Z,12.90
2023-01-25T15:08:08.608Z,12.03
2023-01-25T15:11:45.382Z,19.77
2023-01-25T15:14:54.112Z,8.30
2023-01-25T15:17:59.012Z,9.73
2023-01-25T15:21:00.712Z,8.43
2023-01-25T15:24:06.802Z,10.00
2023-01-25T15:27:10.471Z,12.60
2023-01-25T15:30:13.429Z,22.27
2023-01-25T15:33:22.332Z,15.43
2023-01-25T15:36:24.352Z,10.97
2023-01-25T15:39:26.676Z,13.40
2023-01-25T15:42:29.020Z,10.47
2023-01-25T15:45:30.711Z,10.67
2023-01-25T15:48:36.731Z,12.13
2023-01-25T15:51:38.402Z,11.40
2023-01-25T15:54:42.270Z,13.00
2023-01-25T15:57:47.721Z,12.63
2023-01-25T16:00:50.371Z,10.00
2023-01-25T16:03:52.064Z,12.13
2023-01-25T16:06:54.531Z,10.63
2023-01-25T16:09:56.319Z,10.63
2023-01-25T16:12:59.407Z,18.33
2023-01-25T16:16:04.615Z,18.73
2023-01-25T16:19:06.591Z,13.67
2023-01-25T16:22:08.304Z,19.30
2023-01-25T16:25:13.232Z,15.43
2023-01-25T16:28:15.757Z,17.83
2023-01-25T16:31:31.758Z,15.53
2023-01-25T16:34:40.142Z,30.63
2023-01-25T16:37:41.962Z,21.33
2023-01-25T16:40:43.795Z,20.40
2023-01-25T16:43:47.201Z,21.33
2023-01-25T16:46:50.347Z,19.70
2023-01-25T16:49:52.499Z,14.13
2023-01-25T16:52:54.945Z,16.30
2023-01-25T16:55:58.735Z,16.20
2023-01-25T16:59:01.670Z,15.90
2023-01-25T17:02:03.329Z,19.13
2023-01-25T17:05:05.725Z,16.30
2023-01-25T17:08:08.160Z,15.00
2023-01-25T17:11:10.283Z,16.87
2023-01-25T17:14:14.549Z,15.00
2023-01-25T17:17:16.436Z,15.63
2023-01-25T17:20:19.151Z,14.13
2023-01-25T17:23:22.493Z,16.10
2023-01-25T17:26:25.204Z,14.83
2023-01-25T17:29:27.222Z,17.67
2023-01-25T17:32:28.875Z,18.70
2023-01-25T17:35:30.784Z,10.83
2023-01-25T17:38:32.530Z,9.70
2023-01-25T17:41:35.623Z,10.47
2023-01-25T17:44:37.468Z,12.30
2023-01-25T17:47:43.285Z,15.10
2023-01-25T17:50:45.263Z,15.63
2023-01-25T17:53:47.270Z,39.40
2023-01-25T17:56:49.250Z,18.40
2023-01-25T17:59:50.966Z,16.83
2023-01-25T18:02:53.872Z,20.27
2023-01-25T18:05:58.438Z,19.50
2023-01-25T18:09:01.645Z,15.80
2023-01-25T18:12:03.331Z,19.23
2023-01-25T18:15:05.361Z,19.83
2023-01-25T18:18:08.356Z,28.73
2023-01-25T18:21:11.903Z,27.30
2023-01-25T18:24:22.980Z,25.40
2023-01-25T18:27:25.977Z,33.70
2023-01-25T18:30:43.274Z,31.43
2023-01-25T18:33:45.222Z,23.97
2023-01-25T18:36:48.606Z,14.47
2023-01-25T18:39:52.286Z,15.47
2023-01-25T18:42:54.137Z,16.70
2023-01-25T18:45:56.588Z,13.33
2023-01-25T18:48:58.276Z,18.27
2023-01-25T18:52:10.958Z,29.03
2023-01-25T18:55:14.153Z,16.20
2023-01-25T18:58:16.193Z,14.90
2023-01-25T19:01:19.722Z,15.10
2023-01-25T19:04:21.601Z,21.23
2023-01-25T19:07:23.258Z,18.70
2023-01-25T19:10:24.867Z,15.50
2023-01-25T19:13:27.487Z,16.53
2023-01-25T19:16:29.796Z,13.73
2023-01-25T19:19:34.029Z,14.63
2023-01-25T19:22:35.946Z,11.90
2023-01-25T19:25:38.454Z,15.80
2023-01-25T19:28:40.199Z,18.20
2023-01-25T19:31:42.240Z,17.20
2023-01-25T19:34:44.288Z,19.40
2023-01-25T19:37:46.054Z,16.97
2023-01-25T19:40:47.633Z,14.27
2023-01-25T19:43:59.615Z,16.10
2023-01-25T19:47:01.261Z,16.23
2023-01-25T19:50:03.535Z,16.93
2023-01-25T19:53:05.175Z,21.27
2023-01-25T19:56:07.969Z,20.37
2023-01-25T19:59:16.902Z,24.17
2023-01-25T20:02:18.623Z,19.73
2023-01-25T20:05:21.400Z,14.57
2023-01-25T20:08:23.238Z,18.07
2023-01-25T20:11:26.345Z,17.17
2023-01-25T20:14:28.134Z,17.73
2023-01-25T20:17:30.111Z,15.93
2023-01-25T20:20:31.800Z,15.53
2023-01-25T20:23:34.906Z,17.33
2023-01-25T20:26:39.052Z,15.37
2023-01-25T20:29:40.784Z,14.80
2023-01-25T20:32:42.597Z,13.17
2023-01-25T20:35:47.526Z,13.43
2023-01-25T20:38:49.585Z,12.33
2023-01-25T20:41:53.774Z,13.43
2023-01-25T20:44:55.537Z,12.90
2023-01-25T20:47:57.241Z,16.30
2023-01-25T20:51:03.254Z,14.50
2023-01-25T20:54:05.590Z,10.17
2023-01-25T20:57:07.530Z,13.00
2023-01-25T21:00:09.709Z,13.17
2023-01-25T21:03:11.612Z,14.27
2023-01-25T21:06:13.508Z,9.93
2023-01-25T21:09:15.562Z,12.67
2023-01-25T21:12:17.736Z,11.67
2023-01-25T21:15:19.423Z,12.13
2023-01-25T21:18:21.156Z,11.63
2023-01-25T21:21:26.002Z,11.60
2023-01-25T21:24:27.970Z,11.43
2023-01-25T21:27:30.883Z,9.77
2023-01-25T21:30:32.696Z,10.53
2023-01-25T21:33:34.814Z,11.43
2023-01-25T21:36:36.608Z,10.07
2023-01-25T21:39:38.266Z,11.27
2023-01-25T21:42:39.829Z,11.50
2023-01-25T21:45:59.766Z,11.60
2023-01-25T21:49:20.973Z,8.87
2023-01-25T21:52:22.586Z,8.77
2023-01-25T21:55:24.255Z,10.57
2023-01-25T21:58:25.908Z,9.60
2023-01-25T22:01:27.553Z,9.17
2023-01-25T22:04:29.282Z,8.27
2023-01-25T22:07:32.686Z,9.53
2023-01-25T22:10:35.179Z,9.63
2023-01-25T22:13:37.185Z,9.07
2023-01-25T22:16:38.846Z,9.40
2023-01-25T22:19:40.509Z,8.20
2023-01-25T22:22:42.115Z,10.03
2023-01-25T22:25:43.712Z,8.93
2023-01-25T22:28:51.502Z,8.43
2023-01-25T22:31:53.219Z,9.23
2023-01-25T22:34:55.172Z,9.60
2023-01-25T22:37:56.766Z,9.60
2023-01-25T22:41:03.704Z,10.07
2023-01-25T22:44:05.761Z,10.20
2023-01-25T22:47:07.362Z,9.37
2023-01-25T22:50:09.688Z,9.80
2023-01-25T22:53:11.626Z,8.87
2023-01-25T22:56:14.536Z,9.03
2023-01-25T22:59:19.004Z,9.70
2023-01-25T23:02:20.707Z,9.63
2023-01-25T23:05:22.346Z,8.70
2023-01-25T23:08:23.921Z,8.67
2023-01-25T23:11:26.069Z,8.00
2023-01-25T23:14:45.979Z,8.53
2023-01-25T23:18:06.305Z,8.73
2023-01-25T23:21:08.081Z,8.70
2023-01-25T23:24:10.073Z,7.87
2023-01-25T23:27:12.676Z,9.47
2023-01-25T23:30:14.502Z,6.93
2023-01-25T23:33:16.114Z,8.03
2023-01-25T23:36:38.964Z,8.40
2023-01-25T23:39:40.613Z,7.90
2023-01-25T23:42:42.249Z,7.67
2023-01-25T23:45:44.577Z,7.07
2023-01-25T23:48:46.446Z,7.23
2023-01-25T23:51:48.027Z,7.70
2023-01-25T23:54:49.664Z,8.07
2023-01-25T23:57:52.639Z,8.90
